sensor_id;sensor_type;location;lat;lon;timestamp;P1;durP1;ratioP1;P2;durP2;ratioP2
5507;SDS011;2776;51.046;6.772;2023-04-22T00:01:51;10.67;;;9.40;;
5507;SDS011;2776;51.046;6.772;2023-04-22T00:04:18;11.23;;;8.77;;
5507;SDS011;2776;51.046;6.772;2023-04-22T00:06:46;10.43;;;8.93;;
5507;SDS011;2776;51.046;6.772;2023-04-22T00:09:13;9.57;;;8.23;;
5507;SDS011;2776;51.046;6.772;2023-04-22T00:11:40;9.80;;;8.70;;
5507;SDS011;2776;51.046;6.772;2023-04-22T00:14:06;9.00;;;8.10;;
5507;SDS011;2776;51.046;6.772;2023-04-22T00:16:33;9.70;;;7.67;;
5507;SDS011;2776;51.046;6.772;2023-04-22T00:19:00;8.80;;;7.50;;
5507;SDS011;2776;51.046;6.772;2023-04-22T00:21:27;10.93;;;9.37;;
5507;SDS011;2776;51.046;6.772;2023-04-22T00:23:55;10.43;;;8.57;;
5507;SDS011;2776;51.046;6.772;2023-04-22T00:26:22;12.03;;;10.20;;
5507;SDS011;2776;51.046;6.772;2023-04-22T00:28:49;13.33;;;11.07;;
5507;SDS011;2776;51.046;6.772;2023-04-22T00:31:16;16.10;;;13.47;;
5507;SDS011;2776;51.046;6.772;2023-04-22T00:33:42;16.43;;;13.23;;
5507;SDS011;2776;51.046;6.772;2023-04-22T00:36:09;17.43;;;14.70;;
5507;SDS011;2776;51.046;6.772;2023-04-22T00:38:36;21.77;;;15.60;;
5507;SDS011;2776;51.046;6.772;2023-04-22T00:41:04;18.97;;;14.37;;
5507;SDS011;2776;51.046;6.772;2023-04-22T00:43:31;20.00;;;14.60;;
5507;SDS011;2776;51.046;6.772;2023-04-22T00:45:58;21.00;;;15.80;;
5507;SDS011;2776;51.046;6.772;2023-04-22T00:48:26;16.50;;;13.93;;
5507;SDS011;2776;51.046;6.772;2023-04-22T00:50:54;17.23;;;14.80;;
5507;SDS011;2776;51.046;6.772;2023-04-22T00:53:21;18.00;;;14.03;;
5507;SDS011;2776;51.046;6.772;2023-04-22T00:55:48;16.73;;;13.63;;
5507;SDS011;2776;51.046;6.772;2023-04-22T00:58:16;15.10;;;13.50;;
5507;SDS011;2776;51.046;6.772;2023-04-22T01:00:44;14.93;;;12.83;;
5507;SDS011;2776;51.046;6.772;2023-04-22T01:03:10;15.67;;;13.33;;
5507;SDS011;2776;51.046;6.772;2023-04-22T01:05:37;16.07;;;13.47;;
5507;SDS011;2776;51.046;6.772;2023-04-22T01:08:05;19.53;;;13.40;;
5507;SDS011;2776;51.046;6.772;2023-04-22T01:10:32;17.50;;;13.27;;
5507;SDS011;2776;51.046;6.772;2023-04-22T01:12:59;14.80;;;10.93;;
5507;SDS011;2776;51.046;6.772;2023-04-22T01:15:27;13.37;;;11.70;;
5507;SDS011;2776;51.046;6.772;2023-04-22T01:17:54;10.90;;;9.80;;
5507;SDS011;2776;51.046;6.772;2023-04-22T01:20:21;15.60;;;13.43;;
5507;SDS011;2776;51.046;6.772;2023-04-22T01:22:48;17.37;;;14.60;;
5507;SDS011;2776;51.046;6.772;2023-04-22T01:25:19;18.43;;;14.37;;
5507;SDS011;2776;51.046;6.772;2023-04-22T01:27:46;15.83;;;13.93;;
5507;SDS011;2776;51.046;6.772;2023-04-22T01:30:13;17.10;;;14.70;;
5507;SDS011;2776;51.046;6.772;2023-04-22T01:32:41;18.57;;;14.87;;
5507;SDS011;2776;51.046;6.772;2023-04-22T01:35:08;17.00;;;14.83;;
5507;SDS011;2776;51.046;6.772;2023-04-22T01:37:35;17.97;;;14.40;;
5507;SDS011;2776;51.046;6.772;2023-04-22T01:40:03;16.87;;;14.53;;
5507;SDS011;2776;51.046;6.772;2023-04-22T01:42:32;17.27;;;15.13;;
5507;SDS011;2776;51.046;6.772;2023-04-22T01:44:59;19.13;;;15.47;;
5507;SDS011;2776;51.046;6.772;2023-04-22T01:47:26;17.87;;;14.80;;
5507;SDS011;2776;51.046;6.772;2023-04-22T01:49:53;18.93;;;15.03;;
5507;SDS011;2776;51.046;6.772;2023-04-22T01:52:19;16.50;;;14.40;;
5507;SDS011;2776;51.046;6.772;2023-04-22T01:54:46;16.40;;;13.97;;
5507;SDS011;2776;51.046;6.772;2023-04-22T01:57:13;16.73;;;14.10;;
5507;SDS011;2776;51.046;6.772;2023-04-22T01:59:42;20.53;;;14.53;;
5507;SDS011;2776;51.046;6.772;2023-04-22T02:02:08;19.47;;;14.93;;
5507;SDS011;2776;51.046;6.772;2023-04-22T02:04:35;18.53;;;14.03;;
5507;SDS011;2776;51.046;6.772;2023-04-22T02:07:02;17.23;;;13.33;;
5507;SDS011;2776;51.046;6.772;2023-04-22T02:09:29;14.97;;;12.97;;
5507;SDS011;2776;51.046;6.772;2023-04-22T02:11:55;16.13;;;13.47;;
5507;SDS011;2776;51.046;6.772;2023-04-22T02:14:22;14.50;;;13.00;;
5507;SDS011;2776;51.046;6.772;2023-04-22T02:16:51;16.13;;;13.00;;
5507;SDS011;2776;51.046;6.772;2023-04-22T02:19:18;14.10;;;12.63;;
5507;SDS011;2776;51.046;6.772;2023-04-22T02:21:45;14.70;;;12.73;;
5507;SDS011;2776;51.046;6.772;2023-04-22T02:24:11;14.40;;;12.43;;
5507;SDS011;2776;51.046;6.772;2023-04-22T02:26:38;17.57;;;14.13;;
5507;SDS011;2776;51.046;6.772;2023-04-22T02:29:05;14.97;;;11.77;;
5507;SDS011;2776;51.046;6.772;2023-04-22T02:31:32;16.70;;;12.93;;
5507;SDS011;2776;51.046;6.772;2023-04-22T02:34:00;16.07;;;11.60;;
5507;SDS011;2776;51.046;6.772;2023-04-22T02:36:27;12.53;;;11.07;;
5507;SDS011;2776;51.046;6.772;2023-04-22T02:38:53;13.53;;;11.27;;
5507;SDS011;2776;51.046;6.772;2023-04-22T02:41:20;14.70;;;10.43;;
5507;SDS011;2776;51.046;6.772;2023-04-22T02:43:47;12.70;;;11.00;;
5507;SDS011;2776;51.046;6.772;2023-04-22T02:46:14;12.50;;;10.73;;
5507;SDS011;2776;51.046;6.772;2023-04-22T02:48:41;13.73;;;11.23;;
5507;SDS011;2776;51.046;6.772;2023-04-22T02:51:09;12.50;;;10.57;;
5507;SDS011;2776;51.046;6.772;2023-04-22T02:53:36;11.73;;;10.53;;
5507;SDS011;2776;51.046;6.772;2023-04-22T02:56:03;12.37;;;11.07;;
5507;SDS011;2776;51.046;6.772;2023-04-22T02:58:30;12.73;;;11.37;;
5507;SDS011;2776;51.046;6.772;2023-04-22T03:00:57;15.00;;;12.03;;
5507;SDS011;2776;51.046;6.772;2023-04-22T03:03:23;16.27;;;12.07;;
5507;SDS011;2776;51.046;6.772;2023-04-22T03:05:50;13.57;;;12.17;;
5507;SDS011;2776;51.046;6.772;2023-04-22T03:08:18;13.90;;;11.50;;
5507;SDS011;2776;51.046;6.772;2023-04-22T03:10:45;11.57;;;10.37;;
5507;SDS011;2776;51.046;6.772;2023-04-22T03:13:12;12.00;;;10.80;;
5507;SDS011;2776;51.046;6.772;2023-04-22T03:15:39;12.37;;;10.37;;
5507;SDS011;2776;51.046;6.772;2023-04-22T03:18:06;11.27;;;10.07;;
5507;SDS011;2776;51.046;6.772;2023-04-22T03:20:33;13.33;;;10.47;;
5507;SDS011;2776;51.046;6.772;2023-04-22T03:22:59;12.10;;;10.30;;
5507;SDS011;2776;51.046;6.772;2023-04-22T03:25:28;13.20;;;9.87;;
5507;SDS011;2776;51.046;6.772;2023-04-22T03:27:54;11.27;;;9.30;;
5507;SDS011;2776;51.046;6.772;2023-04-22T03:30:21;9.80;;;8.73;;
5507;SDS011;2776;51.046;6.772;2023-04-22T03:32:48;10.20;;;9.10;;
5507;SDS011;2776;51.046;6.772;2023-04-22T03:35:16;9.27;;;8.33;;
5507;SDS011;2776;51.046;6.772;2023-04-22T03:37:43;9.37;;;8.33;;
5507;SDS011;2776;51.046;6.772;2023-04-22T03:40:10;10.27;;;9.17;;
5507;SDS011;2776;51.046;6.772;2023-04-22T03:42:38;10.10;;;8.27;;
5507;SDS011;2776;51.046;6.772;2023-04-22T03:45:05;9.43;;;8.53;;
5507;SDS011;2776;51.046;6.772;2023-04-22T03:47:32;10.17;;;8.53;;
5507;SDS011;2776;51.046;6.772;2023-04-22T03:49:59;11.03;;;8.73;;
5507;SDS011;2776;51.046;6.772;2023-04-22T03:52:26;9.00;;;8.20;;
5507;SDS011;2776;51.046;6.772;2023-04-22T03:54:52;9.50;;;8.30;;
5507;SDS011;2776;51.046;6.772;2023-04-22T03:57:19;9.47;;;8.57;;
5507;SDS011;2776;51.046;6.772;2023-04-22T03:59:47;9.17;;;7.70;;
5507;SDS011;2776;51.046;6.772;2023-04-22T04:02:14;9.70;;;7.97;;
5507;SDS011;2776;51.046;6.772;2023-04-22T04:04:41;9.27;;;7.37;;
5507;SDS011;2776;51.046;6.772;2023-04-22T04:07:07;7.63;;;6.93;;
5507;SDS011;2776;51.046;6.772;2023-04-22T04:09:34;7.73;;;6.90;;
5507;SDS011;2776;51.046;6.772;2023-04-22T04:12:01;9.67;;;6.73;;
5507;SDS011;2776;51.046;6.772;2023-04-22T04:14:28;6.93;;;6.30;;
5507;SDS011;2776;51.046;6.772;2023-04-22T04:16:56;8.13;;;5.87;;
5507;SDS011;2776;51.046;6.772;2023-04-22T04:19:22;7.47;;;6.67;;
5507;SDS011;2776;51.046;6.772;2023-04-22T04:21:49;6.73;;;5.83;;
5507;SDS011;2776;51.046;6.772;2023-04-22T04:24:16;6.97;;;6.27;;
5507;SDS011;2776;51.046;6.772;2023-04-22T04:26:43;6.80;;;5.63;;
5507;SDS011;2776;51.046;6.772;2023-04-22T04:29:10;6.07;;;5.47;;
5507;SDS011;2776;51.046;6.772;2023-04-22T04:31:37;7.37;;;5.80;;
5507;SDS011;2776;51.046;6.772;2023-04-22T04:34:05;6.20;;;5.60;;
5507;SDS011;2776;51.046;6.772;2023-04-22T04:36:32;9.83;;;6.00;;
5507;SDS011;2776;51.046;6.772;2023-04-22T04:38:59;6.20;;;5.60;;
5507;SDS011;2776;51.046;6.772;2023-04-22T04:41:26;7.03;;;6.43;;
5507;SDS011;2776;51.046;6.772;2023-04-22T04:43:53;7.10;;;5.67;;
5507;SDS011;2776;51.046;6.772;2023-04-22T04:46:20;6.27;;;5.67;;
5507;SDS011;2776;51.046;6.772;2023-04-22T04:48:47;6.53;;;5.60;;
5507;SDS011;2776;51.046;6.772;2023-04-22T04:51:17;6.53;;;5.40;;
5507;SDS011;2776;51.046;6.772;2023-04-22T04:53:44;6.67;;;5.00;;
5507;SDS011;2776;51.046;6.772;2023-04-22T04:56:10;5.67;;;5.10;;
5507;SDS011;2776;51.046;6.772;2023-04-22T04:58:37;8.00;;;4.57;;
5507;SDS011;2776;51.046;6.772;2023-04-22T05:01:04;5.77;;;5.03;;
5507;SDS011;2776;51.046;6.772;2023-04-22T05:03:31;5.33;;;4.83;;
5507;SDS011;2776;51.046;6.772;2023-04-22T05:05:58;6.47;;;5.03;;
5507;SDS011;2776;51.046;6.772;2023-04-22T05:08:26;6.17;;;4.53;;
5507;SDS011;2776;51.046;6.772;2023-04-22T05:10:52;7.10;;;4.80;;
5507;SDS011;2776;51.046;6.772;2023-04-22T05:13:20;5.43;;;4.53;;
5507;SDS011;2776;51.046;6.772;2023-04-22T05:15:47;4.80;;;4.40;;
5507;SDS011;2776;51.046;6.772;2023-04-22T05:18:13;5.03;;;4.37;;
5507;SDS011;2776;51.046;6.772;2023-04-22T05:20:40;5.33;;;4.37;;
5507;SDS011;2776;51.046;6.772;2023-04-22T05:23:07;4.17;;;3.77;;
5507;SDS011;2776;51.046;6.772;2023-04-22T05:25:35;4.27;;;3.87;;
5507;SDS011;2776;51.046;6.772;2023-04-22T05:28:02;4.80;;;3.87;;
5507;SDS011;2776;51.046;6.772;2023-04-22T05:30:28;5.17;;;4.07;;
5507;SDS011;2776;51.046;6.772;2023-04-22T05:32:55;4.07;;;3.67;;
5507;SDS011;2776;51.046;6.772;2023-04-22T05:35:22;4.20;;;3.80;;
5507;SDS011;2776;51.046;6.772;2023-04-22T05:37:49;4.03;;;3.73;;
5507;SDS011;2776;51.046;6.772;2023-04-22T05:40:15;3.40;;;3.03;;
5507;SDS011;2776;51.046;6.772;2023-04-22T05:42:43;3.20;;;2.90;;
5507;SDS011;2776;51.046;6.772;2023-04-22T05:45:10;3.97;;;3.10;;
5507;SDS011;2776;51.046;6.772;2023-04-22T05:47:37;2.90;;;2.70;;
5507;SDS011;2776;51.046;6.772;2023-04-22T05:50:04;3.07;;;2.87;;
5507;SDS011;2776;51.046;6.772;2023-04-22T05:52:32;4.77;;;3.07;;
5507;SDS011;2776;51.046;6.772;2023-04-22T05:54:58;3.73;;;3.43;;
5507;SDS011;2776;51.046;6.772;2023-04-22T05:57:25;4.33;;;3.30;;
5507;SDS011;2776;51.046;6.772;2023-04-22T05:59:53;3.70;;;3.40;;
5507;SDS011;2776;51.046;6.772;2023-04-22T06:02:20;3.57;;;3.27;;
5507;SDS011;2776;51.046;6.772;2023-04-22T06:04:47;3.47;;;3.17;;
5507;SDS011;2776;51.046;6.772;2023-04-22T06:07:13;3.57;;;3.27;;
5507;SDS011;2776;51.046;6.772;2023-04-22T06:09:40;3.20;;;2.90;;
5507;SDS011;2776;51.046;6.772;2023-04-22T06:12:07;3.10;;;2.90;;
5507;SDS011;2776;51.046;6.772;2023-04-22T06:14:34;3.70;;;3.30;;
5507;SDS011;2776;51.046;6.772;2023-04-22T06:17:02;4.10;;;3.10;;
5507;SDS011;2776;51.046;6.772;2023-04-22T06:19:28;3.60;;;3.20;;
5507;SDS011;2776;51.046;6.772;2023-04-22T06:21:55;3.50;;;3.20;;
5507;SDS011;2776;51.046;6.772;2023-04-22T06:24:22;2.80;;;2.57;;
5507;SDS011;2776;51.046;6.772;2023-04-22T06:26:49;3.17;;;2.70;;
5507;SDS011;2776;51.046;6.772;2023-04-22T06:29:15;3.25;;;2.95;;
5507;SDS011;2776;51.046;6.772;2023-04-22T06:31:42;2.60;;;2.40;;
5507;SDS011;2776;51.046;6.772;2023-04-22T06:34:10;2.63;;;2.42;;
5507;SDS011;2776;51.046;6.772;2023-04-22T06:36:37;2.53;;;2.30;;
5507;SDS011;2776;51.046;6.772;2023-04-22T06:39:04;3.40;;;2.33;;
5507;SDS011;2776;51.046;6.772;2023-04-22T06:41:31;2.88;;;2.28;;
5507;SDS011;2776;51.046;6.772;2023-04-22T06:43:58;3.50;;;2.50;;
5507;SDS011;2776;51.046;6.772;2023-04-22T06:46:24;3.03;;;2.58;;
5507;SDS011;2776;51.046;6.772;2023-04-22T06:48:51;3.13;;;2.40;;
5507;SDS011;2776;51.046;6.772;2023-04-22T06:51:19;2.85;;;2.20;;
5507;SDS011;2776;51.046;6.772;2023-04-22T06:53:46;2.92;;;2.45;;
5507;SDS011;2776;51.046;6.772;2023-04-22T06:56:13;2.78;;;2.35;;
5507;SDS011;2776;51.046;6.772;2023-04-22T06:58:39;2.85;;;2.40;;
5507;SDS011;2776;51.046;6.772;2023-04-22T07:01:06;2.50;;;2.30;;
5507;SDS011;2776;51.046;6.772;2023-04-22T07:03:33;3.35;;;2.63;;
5507;SDS011;2776;51.046;6.772;2023-04-22T07:06:00;3.38;;;2.80;;
5507;SDS011;2776;51.046;6.772;2023-04-22T07:08:28;3.33;;;2.60;;
5507;SDS011;2776;51.046;6.772;2023-04-22T07:10:55;3.70;;;2.90;;
5507;SDS011;2776;51.046;6.772;2023-04-22T07:13:22;2.88;;;2.67;;
5507;SDS011;2776;51.046;6.772;2023-04-22T07:15:51;4.90;;;2.63;;
5507;SDS011;2776;51.046;6.772;2023-04-22T07:18:18;3.00;;;2.80;;
5507;SDS011;2776;51.046;6.772;2023-04-22T07:20:44;2.72;;;2.53;;
5507;SDS011;2776;51.046;6.772;2023-04-22T07:23:11;2.65;;;2.45;;
5507;SDS011;2776;51.046;6.772;2023-04-22T07:25:39;2.50;;;2.30;;
5507;SDS011;2776;51.046;6.772;2023-04-22T07:28:06;3.13;;;2.83;;
5507;SDS011;2776;51.046;6.772;2023-04-22T07:30:33;2.97;;;2.53;;
5507;SDS011;2776;51.046;6.772;2023-04-22T07:32:59;2.67;;;2.47;;
5507;SDS011;2776;51.046;6.772;2023-04-22T07:35:26;3.17;;;2.28;;
5507;SDS011;2776;51.046;6.772;2023-04-22T07:37:53;2.42;;;2.22;;
5507;SDS011;2776;51.046;6.772;2023-04-22T07:40:20;4.18;;;2.10;;
5507;SDS011;2776;51.046;6.772;2023-04-22T07:42:48;3.42;;;1.90;;
5507;SDS011;2776;51.046;6.772;2023-04-22T07:45:15;4.00;;;2.30;;
5507;SDS011;2776;51.046;6.772;2023-04-22T07:47:43;2.67;;;2.28;;
5507;SDS011;2776;51.046;6.772;2023-04-22T07:50:10;2.53;;;2.10;;
5507;SDS011;2776;51.046;6.772;2023-04-22T07:52:37;2.22;;;2.00;;
5507;SDS011;2776;51.046;6.772;2023-04-22T07:55:04;4.32;;;2.03;;
5507;SDS011;2776;51.046;6.772;2023-04-22T07:57:31;2.53;;;2.20;;
5507;SDS011;2776;51.046;6.772;2023-04-22T08:00:04;19.90;;;8.13;;
5507;SDS011;2776;51.046;6.772;2023-04-22T08:02:31;6.43;;;3.45;;
5507;SDS011;2776;51.046;6.772;2023-04-22T08:04:58;3.20;;;2.13;;
5507;SDS011;2776;51.046;6.772;2023-04-22T08:07:25;2.40;;;2.20;;
5507;SDS011;2776;51.046;6.772;2023-04-22T08:09:52;2.38;;;2.17;;
5507;SDS011;2776;51.046;6.772;2023-04-22T08:12:20;3.30;;;2.00;;
5507;SDS011;2776;51.046;6.772;2023-04-22T08:14:47;3.38;;;2.13;;
5507;SDS011;2776;51.046;6.772;2023-04-22T08:17:15;2.65;;;2.45;;
5507;SDS011;2776;51.046;6.772;2023-04-22T08:19:45;4.97;;;2.63;;
5507;SDS011;2776;51.046;6.772;2023-04-22T08:22:12;3.28;;;2.08;;
5507;SDS011;2776;51.046;6.772;2023-04-22T08:24:39;6.53;;;2.60;;
5507;SDS011;2776;51.046;6.772;2023-04-22T08:27:06;3.55;;;2.45;;
5507;SDS011;2776;51.046;6.772;2023-04-22T08:29:33;2.70;;;2.00;;
5507;SDS011;2776;51.046;6.772;2023-04-22T08:32:00;3.25;;;2.10;;
5507;SDS011;2776;51.046;6.772;2023-04-22T08:34:28;2.80;;;2.25;;
5507;SDS011;2776;51.046;6.772;2023-04-22T08:36:54;2.90;;;2.20;;
5507;SDS011;2776;51.046;6.772;2023-04-22T08:39:21;2.15;;;1.95;;
5507;SDS011;2776;51.046;6.772;2023-04-22T08:41:48;3.47;;;2.35;;
5507;SDS011;2776;51.046;6.772;2023-04-22T08:44:16;2.05;;;1.95;;
5507;SDS011;2776;51.046;6.772;2023-04-22T08:46:44;3.63;;;2.00;;
5507;SDS011;2776;51.046;6.772;2023-04-22T08:49:12;3.92;;;2.30;;
5507;SDS011;2776;51.046;6.772;2023-04-22T08:51:42;4.70;;;2.03;;
5507;SDS011;2776;51.046;6.772;2023-04-22T08:54:10;1.98;;;1.75;;
5507;SDS011;2776;51.046;6.772;2023-04-22T08:56:37;3.08;;;1.67;;
5507;SDS011;2776;51.046;6.772;2023-04-22T08:59:06;2.00;;;1.80;;
5507;SDS011;2776;51.046;6.772;2023-04-22T09:01:35;3.40;;;2.00;;
5507;SDS011;2776;51.046;6.772;2023-04-22T09:04:03;4.22;;;1.70;;
5507;SDS011;2776;51.046;6.772;2023-04-22T09:06:31;2.08;;;1.75;;
5507;SDS011;2776;51.046;6.772;2023-04-22T09:09:00;1.80;;;1.70;;
5507;SDS011;2776;51.046;6.772;2023-04-22T09:11:27;2.40;;;1.70;;
5507;SDS011;2776;51.046;6.772;2023-04-22T09:13:54;2.42;;;1.67;;
5507;SDS011;2776;51.046;6.772;2023-04-22T09:16:20;2.50;;;1.80;;
5507;SDS011;2776;51.046;6.772;2023-04-22T09:18:47;1.67;;;1.58;;
5507;SDS011;2776;51.046;6.772;2023-04-22T09:21:15;2.88;;;2.00;;
5507;SDS011;2776;51.046;6.772;2023-04-22T09:23:44;1.63;;;1.50;;
5507;SDS011;2776;51.046;6.772;2023-04-22T09:26:13;2.80;;;1.80;;
5507;SDS011;2776;51.046;6.772;2023-04-22T09:28:47;3.08;;;2.00;;
5507;SDS011;2776;51.046;6.772;2023-04-22T09:31:17;1.73;;;1.58;;
5507;SDS011;2776;51.046;6.772;2023-04-22T09:33:46;3.55;;;1.98;;
5507;SDS011;2776;51.046;6.772;2023-04-22T09:36:14;1.70;;;1.60;;
5507;SDS011;2776;51.046;6.772;2023-04-22T09:38:50;2.20;;;1.70;;
5507;SDS011;2776;51.046;6.772;2023-04-22T09:41:19;2.65;;;1.85;;
5507;SDS011;2776;51.046;6.772;2023-04-22T09:43:53;5.38;;;1.70;;
5507;SDS011;2776;51.046;6.772;2023-04-22T09:46:21;2.63;;;1.70;;
5507;SDS011;2776;51.046;6.772;2023-04-22T09:48:49;3.42;;;1.60;;
5507;SDS011;2776;51.046;6.772;2023-04-22T09:51:16;4.50;;;1.85;;
5507;SDS011;2776;51.046;6.772;2023-04-22T09:53:43;2.75;;;1.52;;
5507;SDS011;2776;51.046;6.772;2023-04-22T09:56:10;1.92;;;1.50;;
5507;SDS011;2776;51.046;6.772;2023-04-22T09:58:38;2.38;;;1.60;;
5507;SDS011;2776;51.046;6.772;2023-04-22T10:01:05;2.67;;;1.48;;
5507;SDS011;2776;51.046;6.772;2023-04-22T10:03:32;3.40;;;1.80;;
5507;SDS011;2776;51.046;6.772;2023-04-22T10:05:59;1.50;;;1.40;;
5507;SDS011;2776;51.046;6.772;2023-04-22T10:08:26;3.88;;;1.70;;
5507;SDS011;2776;51.046;6.772;2023-04-22T10:10:53;5.65;;;1.83;;
5507;SDS011;2776;51.046;6.772;2023-04-22T10:13:21;3.47;;;1.73;;
5507;SDS011;2776;51.046;6.772;2023-04-22T10:15:49;2.38;;;2.17;;
5507;SDS011;2776;51.046;6.772;2023-04-22T10:18:20;2.53;;;2.10;;
5507;SDS011;2776;51.046;6.772;2023-04-22T10:20:49;1.75;;;1.60;;
5507;SDS011;2776;51.046;6.772;2023-04-22T10:23:18;5.63;;;1.77;;
5507;SDS011;2776;51.046;6.772;2023-04-22T10:25:47;2.72;;;1.60;;
5507;SDS011;2776;51.046;6.772;2023-04-22T10:28:15;2.85;;;1.77;;
5507;SDS011;2776;51.046;6.772;2023-04-22T10:30:42;6.65;;;2.10;;
5507;SDS011;2776;51.046;6.772;2023-04-22T10:36:06;5.68;;;2.20;;
5507;SDS011;2776;51.046;6.772;2023-04-22T10:38:34;7.82;;;2.17;;
5507;SDS011;2776;51.046;6.772;2023-04-22T10:41:01;2.83;;;1.63;;
5507;SDS011;2776;51.046;6.772;2023-04-22T10:43:41;4.47;;;1.85;;
5507;SDS011;2776;51.046;6.772;2023-04-22T10:49:16;2.72;;;1.70;;
5507;SDS011;2776;51.046;6.772;2023-04-22T10:51:46;1.83;;;1.73;;
5507;SDS011;2776;51.046;6.772;2023-04-22T10:57:18;2.28;;;1.50;;
5507;SDS011;2776;51.046;6.772;2023-04-22T10:59:47;3.88;;;1.77;;
5507;SDS011;2776;51.046;6.772;2023-04-22T11:02:17;2.47;;;1.80;;
5507;SDS011;2776;51.046;6.772;2023-04-22T11:04:46;3.25;;;2.03;;
5507;SDS011;2776;51.046;6.772;2023-04-22T11:07:13;3.85;;;2.05;;
5507;SDS011;2776;51.046;6.772;2023-04-22T11:09:42;2.67;;;1.80;;
5507;SDS011;2776;51.046;6.772;2023-04-22T11:15:08;3.22;;;2.30;;
5507;SDS011;2776;51.046;6.772;2023-04-22T11:17:36;3.40;;;1.92;;
5507;SDS011;2776;51.046;6.772;2023-04-22T11:20:06;3.28;;;1.83;;
5507;SDS011;2776;51.046;6.772;2023-04-22T11:22:34;2.13;;;1.77;;
5507;SDS011;2776;51.046;6.772;2023-04-22T11:25:01;4.72;;;1.80;;
5507;SDS011;2776;51.046;6.772;2023-04-22T11:27:29;2.13;;;1.90;;
5507;SDS011;2776;51.046;6.772;2023-04-22T11:29:59;6.45;;;2.60;;
5507;SDS011;2776;51.046;6.772;2023-04-22T11:32:26;5.63;;;2.17;;
5507;SDS011;2776;51.046;6.772;2023-04-22T11:34:54;4.55;;;2.20;;
5507;SDS011;2776;51.046;6.772;2023-04-22T11:37:23;2.20;;;1.90;;
5507;SDS011;2776;51.046;6.772;2023-04-22T11:39:50;2.25;;;1.65;;
5507;SDS011;2776;51.046;6.772;2023-04-22T11:42:19;5.78;;;2.80;;
5507;SDS011;2776;51.046;6.772;2023-04-22T11:44:46;3.33;;;1.75;;
5507;SDS011;2776;51.046;6.772;2023-04-22T11:47:13;3.63;;;1.80;;
5507;SDS011;2776;51.046;6.772;2023-04-22T11:49:40;3.63;;;2.17;;
5507;SDS011;2776;51.046;6.772;2023-04-22T11:52:06;5.85;;;2.20;;
5507;SDS011;2776;51.046;6.772;2023-04-22T11:54:35;2.80;;;2.08;;
5507;SDS011;2776;51.046;6.772;2023-04-22T11:57:03;2.38;;;2.03;;
5507;SDS011;2776;51.046;6.772;2023-04-22T11:59:32;4.72;;;2.30;;
5507;SDS011;2776;51.046;6.772;2023-04-22T12:01:59;4.30;;;1.80;;
5507;SDS011;2776;51.046;6.772;2023-04-22T12:04:34;2.30;;;2.10;;
5507;SDS011;2776;51.046;6.772;2023-04-22T12:07:02;4.13;;;2.10;;
5507;SDS011;2776;51.046;6.772;2023-04-22T12:09:29;9.93;;;2.30;;
5507;SDS011;2776;51.046;6.772;2023-04-22T12:11:57;3.10;;;2.00;;
5507;SDS011;2776;51.046;6.772;2023-04-22T12:14:27;4.15;;;2.08;;
5507;SDS011;2776;51.046;6.772;2023-04-22T12:16:56;3.08;;;1.77;;
5507;SDS011;2776;51.046;6.772;2023-04-22T12:19:24;5.68;;;1.95;;
5507;SDS011;2776;51.046;6.772;2023-04-22T12:21:53;1.85;;;1.70;;
5507;SDS011;2776;51.046;6.772;2023-04-22T12:24:25;4.38;;;1.92;;
5507;SDS011;2776;51.046;6.772;2023-04-22T12:26:53;2.40;;;1.88;;
5507;SDS011;2776;51.046;6.772;2023-04-22T12:29:28;3.08;;;2.00;;
5507;SDS011;2776;51.046;6.772;2023-04-22T12:31:56;3.08;;;1.70;;
5507;SDS011;2776;51.046;6.772;2023-04-22T12:34:23;4.03;;;1.90;;
5507;SDS011;2776;51.046;6.772;2023-04-22T12:36:49;4.80;;;2.17;;
5507;SDS011;2776;51.046;6.772;2023-04-22T12:39:16;4.00;;;2.25;;
5507;SDS011;2776;51.046;6.772;2023-04-22T12:41:43;3.95;;;2.33;;
5507;SDS011;2776;51.046;6.772;2023-04-22T12:44:14;2.47;;;2.13;;
5507;SDS011;2776;51.046;6.772;2023-04-22T12:46:43;4.30;;;1.85;;
5507;SDS011;2776;51.046;6.772;2023-04-22T12:49:10;4.65;;;1.90;;
5507;SDS011;2776;51.046;6.772;2023-04-22T12:51:38;4.63;;;2.25;;
5507;SDS011;2776;51.046;6.772;2023-04-22T12:54:05;2.85;;;1.90;;
5507;SDS011;2776;51.046;6.772;2023-04-22T12:56:32;3.45;;;2.00;;
5507;SDS011;2776;51.046;6.772;2023-04-22T12:58:58;3.00;;;2.00;;
5507;SDS011;2776;51.046;6.772;2023-04-22T13:01:27;2.58;;;1.80;;
5507;SDS011;2776;51.046;6.772;2023-04-22T13:03:55;2.08;;;1.77;;
5507;SDS011;2776;51.046;6.772;2023-04-22T13:06:22;1.70;;;1.55;;
5507;SDS011;2776;51.046;6.772;2023-04-22T13:08:48;3.88;;;1.75;;
5507;SDS011;2776;51.046;6.772;2023-04-22T13:11:15;2.38;;;2.00;;
5507;SDS011;2776;51.046;6.772;2023-04-22T13:13:42;4.57;;;2.30;;
5507;SDS011;2776;51.046;6.772;2023-04-22T13:16:08;2.35;;;2.00;;
5507;SDS011;2776;51.046;6.772;2023-04-22T13:18:36;2.65;;;1.88;;
5507;SDS011;2776;51.046;6.772;2023-04-22T13:21:04;2.33;;;2.05;;
5507;SDS011;2776;51.046;6.772;2023-04-22T13:23:31;6.47;;;2.00;;
5507;SDS011;2776;51.046;6.772;2023-04-22T13:25:59;3.05;;;2.00;;
5507;SDS011;2776;51.046;6.772;2023-04-22T13:28:26;3.10;;;1.70;;
5507;SDS011;2776;51.046;6.772;2023-04-22T13:30:53;7.10;;;3.40;;
5507;SDS011;2776;51.046;6.772;2023-04-22T13:33:20;4.60;;;2.22;;
5507;SDS011;2776;51.046;6.772;2023-04-22T13:35:46;2.35;;;2.00;;
5507;SDS011;2776;51.046;6.772;2023-04-22T13:38:14;2.72;;;1.95;;
5507;SDS011;2776;51.046;6.772;2023-04-22T13:40:41;3.07;;;2.20;;
5507;SDS011;2776;51.046;6.772;2023-04-22T13:43:08;2.70;;;2.08;;
5507;SDS011;2776;51.046;6.772;2023-04-22T13:45:35;5.05;;;1.98;;
5507;SDS011;2776;51.046;6.772;2023-04-22T13:48:02;3.13;;;1.70;;
5507;SDS011;2776;51.046;6.772;2023-04-22T13:50:28;3.63;;;1.98;;
5507;SDS011;2776;51.046;6.772;2023-04-22T13:52:55;2.92;;;1.95;;
5507;SDS011;2776;51.046;6.772;2023-04-22T13:55:23;3.08;;;2.20;;
5507;SDS011;2776;51.046;6.772;2023-04-22T13:57:50;2.92;;;1.73;;
5507;SDS011;2776;51.046;6.772;2023-04-22T14:00:17;2.95;;;2.10;;
5507;SDS011;2776;51.046;6.772;2023-04-22T14:02:44;2.58;;;1.63;;
5507;SDS011;2776;51.046;6.772;2023-04-22T14:05:11;2.28;;;1.85;;
5507;SDS011;2776;51.046;6.772;2023-04-22T14:07:38;3.35;;;1.60;;
5507;SDS011;2776;51.046;6.772;2023-04-22T14:10:05;3.20;;;1.77;;
5507;SDS011;2776;51.046;6.772;2023-04-22T14:12:37;4.55;;;1.50;;
5507;SDS011;2776;51.046;6.772;2023-04-22T14:15:04;2.58;;;1.75;;
5507;SDS011;2776;51.046;6.772;2023-04-22T14:17:34;2.25;;;1.60;;
5507;SDS011;2776;51.046;6.772;2023-04-22T14:20:01;2.90;;;1.40;;
5507;SDS011;2776;51.046;6.772;2023-04-22T14:22:29;2.10;;;1.70;;
5507;SDS011;2776;51.046;6.772;2023-04-22T14:24:56;1.50;;;1.40;;
5507;SDS011;2776;51.046;6.772;2023-04-22T14:27:23;1.67;;;1.55;;
5507;SDS011;2776;51.046;6.772;2023-04-22T14:29:52;2.15;;;1.70;;
5507;SDS011;2776;51.046;6.772;2023-04-22T14:32:18;1.80;;;1.70;;
5507;SDS011;2776;51.046;6.772;2023-04-22T14:34:45;1.52;;;1.38;;
5507;SDS011;2776;51.046;6.772;2023-04-22T14:37:12;2.05;;;1.50;;
5507;SDS011;2776;51.046;6.772;2023-04-22T14:39:39;1.60;;;1.50;;
5507;SDS011;2776;51.046;6.772;2023-04-22T14:42:06;2.23;;;1.50;;
5507;SDS011;2776;51.046;6.772;2023-04-22T14:44:33;1.45;;;1.33;;
5507;SDS011;2776;51.046;6.772;2023-04-22T14:47:01;1.80;;;1.60;;
5507;SDS011;2776;51.046;6.772;2023-04-22T14:49:28;1.57;;;1.30;;
5507;SDS011;2776;51.046;6.772;2023-04-22T14:51:55;3.00;;;1.30;;
5507;SDS011;2776;51.046;6.772;2023-04-22T14:54:24;2.47;;;1.27;;
5507;SDS011;2776;51.046;6.772;2023-04-22T14:56:52;2.73;;;1.27;;
5507;SDS011;2776;51.046;6.772;2023-04-22T14:59:20;2.03;;;1.37;;
5507;SDS011;2776;51.046;6.772;2023-04-22T15:01:46;1.20;;;1.05;;
5507;SDS011;2776;51.046;6.772;2023-04-22T15:04:15;8.03;;;1.00;;
5507;SDS011;2776;51.046;6.772;2023-04-22T15:06:43;1.43;;;1.10;;
5507;SDS011;2776;51.046;6.772;2023-04-22T15:09:09;2.40;;;1.47;;
5507;SDS011;2776;51.046;6.772;2023-04-22T15:11:36;1.00;;;0.90;;
5507;SDS011;2776;51.046;6.772;2023-04-22T15:14:03;2.20;;;1.10;;
5507;SDS011;2776;51.046;6.772;2023-04-22T15:16:30;1.13;;;0.97;;
5507;SDS011;2776;51.046;6.772;2023-04-22T15:18:57;0.90;;;0.90;;
5507;SDS011;2776;51.046;6.772;2023-04-22T15:21:25;2.20;;;1.80;;
5507;SDS011;2776;51.046;6.772;2023-04-22T15:23:52;7.93;;;5.63;;